KPVD/PVD METAR and TAF weather

Enter ICAO airport designator
Station Type Date Time Source
KPVD METAR 2020/02/20 16:51 UTC NOAA

KPVD 201651Z 30008KT 10SM FEW055 FEW130 SCT300 01/M14 A3041 RMK AO2 SLP296 T00111139


Station Type Date Time Source
KPVD Decoded METAR 2020/02/20 16:51 UTC NOAA

PROVIDENCE GREEN STATE AIRPORT , RI, United States (KPVD) 41-44N 071-26W 16M
Feb 20, 2020 - 11:51 AM EST / 2020.02.20 1651 UTC
Wind: from the WNW (300 degrees) at 9 MPH (8 KT):0
Visibility: 10 mile(s):0
Sky conditions: partly cloudy
Temperature: 34.0 F (1.1 C)
Windchill: 26 F (-3 C):1
Dew Point: 7.0 F (-13.9 C)
Relative Humidity: 31%
Pressure (altimeter): 30.41 in. Hg (1029 hPa)
ob: KPVD 201651Z 30008KT 10SM FEW055 FEW130 SCT300 01/M14 A3041 RMK AO2 SLP296 T00111139
cycle: 17

Station Type Date Time Source
KPVD TAF 2020/02/20 15:16 UTC NOAA

TAF
AMD KPVD 201513Z 2015/2112 30009KT P6SM FEW050
FM201800 29010G18KT P6SM SCT050
FM202300 31007KT P6SM BKN150
FM210500 34006KT P6SM FEW250

Example: see airport list